createdAt,value
2023-04-11T00:01:55.546Z,101422.94
2023-04-11T00:04:25.562Z,101430.38
2023-04-11T00:06:53.585Z,101423.88
2023-04-11T00:09:21.152Z,101422.06
2023-04-11T00:11:48.592Z,101420.31
2023-04-11T00:14:15.929Z,101416.25
2023-04-11T00:16:43.402Z,101412.28
2023-04-11T00:19:11.128Z,101408.44
2023-04-11T00:21:40.108Z,101403.09
2023-04-11T00:24:08.313Z,101407.09
2023-04-11T00:26:36.384Z,101416.06
2023-04-11T00:29:03.881Z,101412.56
2023-04-11T00:31:31.575Z,101410.06
2023-04-11T00:33:59.139Z,101405.22
2023-04-11T00:36:27.301Z,101408.78
2023-04-11T00:38:55.568Z,101410.47
2023-04-11T00:41:24.397Z,101410.28
2023-04-11T00:43:54.313Z,101404.47
2023-04-11T00:46:22.323Z,101401.44
2023-04-11T00:48:50.262Z,101397.31
2023-04-11T00:51:19.252Z,101399.88
2023-04-11T00:53:47.056Z,101400.84
2023-04-11T00:56:14.443Z,101397.59
2023-04-11T00:58:42.381Z,101411.38
2023-04-11T01:01:10.344Z,101401.56
2023-04-11T01:03:39.524Z,101392.63
2023-04-11T01:06:11.337Z,101382.56
2023-04-11T01:08:39.962Z,101388.22
2023-04-11T01:11:09.225Z,101388.38
2023-04-11T01:13:39.329Z,101388.53
2023-04-11T01:16:07.522Z,101379.63
2023-04-11T01:18:35.125Z,101381.09
2023-04-11T01:21:03.152Z,101370.47
2023-04-11T01:23:30.532Z,101364.13
2023-04-11T01:25:58.484Z,101361.72
2023-04-11T01:28:26.256Z,101356.16
2023-04-11T01:30:54.164Z,101350.94
2023-04-11T01:33:22.214Z,101345.44
2023-04-11T01:35:50.535Z,101329.94
2023-04-11T01:38:18.526Z,101319.88
2023-04-11T01:40:46.186Z,101305.22
2023-04-11T01:43:14.221Z,101298.50
2023-04-11T01:45:43.103Z,101297.94
2023-04-11T01:48:10.781Z,101307.66
2023-04-11T01:50:39.158Z,101310.31
2023-04-11T01:53:06.984Z,101325.25
2023-04-11T01:55:34.387Z,101332.66
2023-04-11T01:58:02.149Z,101336.78
2023-04-11T02:00:30.369Z,101337.88
2023-04-11T02:02:58.275Z,101343.25
2023-04-11T02:05:26.197Z,101340.53
2023-04-11T02:07:56.189Z,101345.00
2023-04-11T02:10:24.086Z,101346.91
2023-04-11T02:12:51.486Z,101348.13
2023-04-11T02:15:19.232Z,101355.34
2023-04-11T02:17:47.700Z,101348.44
2023-04-11T02:20:15.588Z,101349.59
2023-04-11T02:22:43.919Z,101352.91
2023-04-11T02:25:11.264Z,101351.03
2023-04-11T02:27:38.616Z,101334.22
2023-04-11T02:30:06.936Z,101330.25
2023-04-11T02:32:35.071Z,101322.50
2023-04-11T02:35:04.233Z,101305.22
2023-04-11T02:37:31.885Z,101311.75
2023-04-11T02:39:59.337Z,101302.66
2023-04-11T02:42:27.203Z,101301.41
2023-04-11T02:44:58.432Z,101299.28
2023-04-11T02:47:29.155Z,101292.94
2023-04-11T02:50:01.289Z,101289.59
2023-04-11T02:52:35.036Z,101286.75
2023-04-11T02:55:02.458Z,101293.16
2023-04-11T02:57:30.340Z,101303.19
2023-04-11T02:59:58.435Z,101309.72
2023-04-11T03:02:35.132Z,101310.75
2023-04-11T03:05:06.476Z,101319.31
2023-04-11T03:07:38.565Z,101308.84
2023-04-11T03:10:07.377Z,101319.47
2023-04-11T03:12:34.801Z,101317.19
2023-04-11T03:15:05.447Z,101308.88
2023-04-11T03:17:33.793Z,101306.75
2023-04-11T03:20:02.084Z,101294.88
2023-04-11T03:22:30.902Z,101289.63
2023-04-11T03:24:59.778Z,101276.28
2023-04-11T03:27:27.668Z,101262.94
2023-04-11T03:29:59.907Z,101252.91
2023-04-11T03:32:36.002Z,101250.91
2023-04-11T03:35:04.284Z,101244.97
2023-04-11T03:37:32.935Z,101230.47
2023-04-11T03:40:00.674Z,101228.06
2023-04-11T03:42:28.298Z,101220.28
2023-04-11T03:45:00.306Z,101222.25
2023-04-11T03:47:28.294Z,101227.50
2023-04-11T03:49:55.784Z,101237.69
2023-04-11T03:52:24.022Z,101245.50
2023-04-11T03:54:51.995Z,101246.97
2023-04-11T03:57:19.839Z,101244.34
2023-04-11T03:59:48.095Z,101252.69
2023-04-11T04:02:16.137Z,101243.22
2023-04-11T04:04:55.311Z,101240.22
2023-04-11T04:07:36.722Z,101236.66
2023-04-11T04:10:14.677Z,101241.53
2023-04-11T04:12:44.452Z,101239.41
2023-04-11T04:15:15.433Z,101240.31
2023-04-11T04:17:46.262Z,101226.75
2023-04-11T04:20:20.395Z,101233.84
2023-04-11T04:22:53.962Z,101240.63
2023-04-11T04:25:30.306Z,101237.22
2023-04-11T04:28:01.017Z,101232.16
2023-04-11T04:30:38.190Z,101227.00
2023-04-11T04:33:12.409Z,101229.25
2023-04-11T04:35:44.049Z,101226.28
2023-04-11T04:38:17.940Z,101226.34
2023-04-11T04:40:54.996Z,101240.16
2023-04-11T04:43:24.394Z,101236.28
2023-04-11T04:45:57.373Z,101237.19
2023-04-11T04:48:34.839Z,101241.97
2023-04-11T04:51:03.869Z,101237.69
2023-04-11T04:53:34.903Z,101233.38
2023-04-11T04:56:02.515Z,101227.69
2023-04-11T04:58:32.230Z,101232.63
2023-04-11T05:01:02.896Z,101232.53
2023-04-11T05:03:36.079Z,101230.41
2023-04-11T05:06:06.508Z,101228.91
2023-04-11T05:08:34.447Z,101217.44
2023-04-11T05:11:03.598Z,101219.72
2023-04-11T05:13:34.371Z,101225.81
2023-04-11T05:16:04.406Z,101234.13
2023-04-11T05:18:32.506Z,101235.00
2023-04-11T05:21:00.207Z,101233.19
2023-04-11T05:23:34.390Z,101234.59
2023-04-11T05:26:03.506Z,101227.66
2023-04-11T05:28:33.243Z,101216.03
2023-04-11T05:31:02.375Z,101210.00
2023-04-11T05:33:30.826Z,101201.91
2023-04-11T05:36:00.054Z,101199.59
2023-04-11T05:38:27.927Z,101203.63
2023-04-11T05:40:55.214Z,101196.34
2023-04-11T05:43:23.036Z,101182.97
2023-04-11T05:45:51.270Z,101165.69
2023-04-11T05:48:19.839Z,101168.63
2023-04-11T05:50:50.111Z,101178.00
2023-04-11T05:53:18.716Z,101173.88
2023-04-11T05:55:46.466Z,101184.44
2023-04-11T05:58:14.248Z,101185.03
2023-04-11T06:00:41.936Z,101172.22
2023-04-11T06:03:09.826Z,101170.41
2023-04-11T06:05:37.758Z,101170.47
2023-04-11T06:08:08.426Z,101177.53
2023-04-11T06:10:36.157Z,101180.09
2023-04-11T06:13:09.395Z,101188.31
2023-04-11T06:15:37.246Z,101182.94
2023-04-11T06:18:05.089Z,101180.28
2023-04-11T06:20:32.476Z,101178.97
2023-04-11T06:23:01.444Z,101175.75
2023-04-11T06:25:29.206Z,101173.94
2023-04-11T06:27:57.543Z,101174.06
2023-04-11T06:30:25.539Z,101169.38
2023-04-11T06:32:53.866Z,101171.53
2023-04-11T06:35:24.879Z,101178.97
2023-04-11T06:37:52.654Z,101174.28
2023-04-11T06:40:20.573Z,101160.50
2023-04-11T06:42:48.552Z,101163.72
2023-04-11T06:45:16.491Z,101160.03
2023-04-11T06:47:44.380Z,101154.72
2023-04-11T06:50:12.255Z,101149.09
2023-04-11T06:52:39.690Z,101143.59
2023-04-11T06:55:07.753Z,101134.66
2023-04-11T06:57:35.678Z,101135.16
2023-04-11T07:00:06.993Z,101124.38
2023-04-11T07:02:36.069Z,101121.00
2023-04-11T07:05:04.125Z,101125.22
2023-04-11T07:07:31.442Z,101127.34
2023-04-11T07:09:59.627Z,101117.38
2023-04-11T07:12:26.938Z,101124.31
2023-04-11T07:14:54.688Z,101118.63
2023-04-11T07:17:22.442Z,101120.88
2023-04-11T07:19:49.787Z,101123.75
2023-04-11T07:22:17.634Z,101118.66
2023-04-11T07:24:46.639Z,101114.59
2023-04-11T07:27:17.671Z,101122.09
2023-04-11T07:29:46.368Z,101130.97
2023-04-11T07:32:14.495Z,101131.19
2023-04-11T07:34:42.269Z,101124.22
2023-04-11T07:37:10.265Z,101127.84
2023-04-11T07:39:38.401Z,101130.88
2023-04-11T07:42:07.109Z,101129.28
2023-04-11T07:44:34.391Z,101125.38
2023-04-11T07:47:02.209Z,101125.91
2023-04-11T07:49:30.179Z,101113.41
2023-04-11T07:51:57.974Z,101106.69
2023-04-11T07:54:28.515Z,101105.75
2023-04-11T07:56:57.146Z,101101.09
2023-04-11T07:59:25.022Z,101096.19
2023-04-11T08:02:01.085Z,101087.34
2023-04-11T08:04:32.727Z,101082.63
2023-04-11T08:07:01.171Z,101085.53
2023-04-11T08:09:29.333Z,101087.09
2023-04-11T08:11:57.286Z,101074.22
2023-04-11T08:14:24.624Z,101069.03
2023-04-11T08:16:53.183Z,101075.03
2023-04-11T08:19:21.992Z,101071.00
2023-04-11T08:21:50.224Z,101071.69
2023-04-11T08:24:17.986Z,101073.81
2023-04-11T08:26:45.962Z,101066.31
2023-04-11T08:29:13.721Z,101065.41
2023-04-11T08:31:44.676Z,101053.25
2023-04-11T08:34:12.807Z,101060.09
2023-04-11T08:36:41.600Z,101046.59
2023-04-11T08:39:09.417Z,101050.66
2023-04-11T08:41:38.090Z,101058.38
2023-04-11T08:44:05.802Z,101048.25
2023-04-11T08:46:40.723Z,101059.22
2023-04-11T08:49:08.270Z,101044.06
2023-04-11T08:51:36.230Z,101039.66
2023-04-11T08:54:07.148Z,101032.25
2023-04-11T08:56:36.034Z,101027.75
2023-04-11T08:59:04.355Z,101013.84
2023-04-11T09:01:32.792Z,101015.19
2023-04-11T09:04:01.403Z,101014.69
2023-04-11T09:06:30.907Z,101006.75
2023-04-11T09:08:58.921Z,101007.41
2023-04-11T09:11:27.469Z,100998.53
2023-04-11T09:14:13.237Z,100998.84
2023-04-11T09:16:53.009Z,100997.38
2023-04-11T09:19:27.554Z,100992.69
2023-04-11T09:21:56.723Z,100983.97
2023-04-11T09:24:26.384Z,100984.41
2023-04-11T09:27:10.274Z,100979.38
2023-04-11T09:29:38.628Z,100973.78
2023-04-11T09:32:06.438Z,100961.19
2023-04-11T09:34:37.515Z,100949.47
2023-04-11T09:37:06.481Z,100962.66
2023-04-11T09:39:33.948Z,100953.22
2023-04-11T09:42:03.152Z,100948.66
2023-04-11T09:44:38.405Z,100960.81
2023-04-11T09:47:05.803Z,100955.03
2023-04-11T09:49:35.036Z,100950.19
2023-04-11T09:52:03.163Z,100950.34
2023-04-11T09:54:32.451Z,100938.09
2023-04-11T09:57:00.504Z,100935.66
2023-04-11T09:59:29.223Z,100925.56
2023-04-11T10:01:57.737Z,100913.06
2023-04-11T10:04:28.180Z,100917.09
2023-04-11T10:07:09.167Z,100920.63
2023-04-11T10:09:38.828Z,100919.94
2023-04-11T10:12:06.227Z,100913.53
2023-04-11T10:14:37.055Z,100925.94
2023-04-11T10:17:12.897Z,100916.25
2023-04-11T10:19:40.961Z,100917.03
2023-04-11T10:22:09.209Z,100904.78
2023-04-11T10:24:37.131Z,100895.78
2023-04-11T10:27:04.797Z,100906.97
2023-04-11T10:29:40.644Z,100894.91
2023-04-11T10:32:14.931Z,100891.91
2023-04-11T10:34:51.779Z,100892.28
2023-04-11T10:37:32.680Z,100886.06
2023-04-11T10:40:10.049Z,100882.22
2023-04-11T10:42:39.865Z,100886.28
2023-04-11T10:45:24.650Z,100862.97
2023-04-11T10:48:11.813Z,100857.53
2023-04-11T10:50:42.061Z,100852.19
2023-04-11T10:53:14.413Z,100848.44
2023-04-11T10:55:49.533Z,100846.97
2023-04-11T10:58:19.711Z,100856.66
2023-04-11T11:00:52.350Z,100859.75
2023-04-11T11:03:21.334Z,100836.19
2023-04-11T11:05:58.657Z,100854.88
2023-04-11T11:08:30.701Z,100855.38
2023-04-11T11:11:02.234Z,100855.88
2023-04-11T11:13:40.195Z,100838.84
2023-04-11T11:16:08.383Z,100841.69
2023-04-11T11:18:37.455Z,100840.56
2023-04-11T11:21:07.346Z,100830.69
2023-04-11T11:23:36.879Z,100828.72
2023-04-11T11:26:04.834Z,100831.59
2023-04-11T11:28:32.357Z,100840.56
2023-04-11T11:31:00.147Z,100836.41
2023-04-11T11:33:27.638Z,100825.78
2023-04-11T11:36:02.452Z,100820.66
2023-04-11T11:38:30.518Z,100822.06
2023-04-11T11:40:59.373Z,100811.44
2023-04-11T11:43:27.596Z,100813.44
2023-04-11T11:46:30.307Z,100804.34
2023-04-11T11:49:00.321Z,100805.38
2023-04-11T11:51:39.310Z,100807.88
2023-04-11T11:54:10.270Z,100806.13
2023-04-11T11:56:38.071Z,100799.19
2023-04-11T11:59:06.102Z,100805.56
2023-04-11T12:01:37.836Z,100796.22
2023-04-11T12:04:11.989Z,100802.88
2023-04-11T12:06:40.012Z,100794.28
2023-04-11T12:09:08.295Z,100794.84
2023-04-11T12:11:43.235Z,100790.09
2023-04-11T12:14:22.200Z,100785.91
2023-04-11T12:16:53.423Z,100778.19
2023-04-11T12:19:21.743Z,100777.84
2023-04-11T12:21:49.068Z,100773.22
2023-04-11T12:24:16.603Z,100772.16
2023-04-11T12:27:05.605Z,100781.38
2023-04-11T12:29:34.501Z,100763.06
2023-04-11T12:32:02.166Z,100772.50
2023-04-11T12:34:30.120Z,100752.84
2023-04-11T12:36:58.176Z,100757.75
2023-04-11T12:39:26.037Z,100745.56
2023-04-11T12:41:53.793Z,100742.13
2023-04-11T12:44:21.556Z,100747.50
2023-04-11T12:46:49.257Z,100737.38
2023-04-11T12:49:17.461Z,100737.03
2023-04-11T12:51:44.808Z,100730.25
2023-04-11T12:54:13.092Z,100728.53
2023-04-11T12:56:41.564Z,100727.53
2023-04-11T12:59:09.583Z,100718.69
2023-04-11T13:01:37.575Z,100711.09
2023-04-11T13:04:05.940Z,100710.94
2023-04-11T13:06:33.602Z,100704.28
2023-04-11T13:09:02.391Z,100695.84
2023-04-11T13:11:30.754Z,100691.06
2023-04-11T13:13:58.472Z,100670.31
2023-04-11T13:16:26.135Z,100664.09
2023-04-11T13:18:54.060Z,100663.06
2023-04-11T13:21:22.425Z,100651.53
2023-04-11T13:23:50.743Z,100648.22
2023-04-11T13:26:18.793Z,100650.25
2023-04-11T13:28:46.404Z,100649.75
2023-04-11T13:31:14.365Z,100651.28
2023-04-11T13:33:42.865Z,100654.28
2023-04-11T13:36:10.901Z,100647.34
2023-04-11T13:38:38.802Z,100633.31
2023-04-11T13:41:06.501Z,100638.84
2023-04-11T13:43:34.242Z,100638.03
2023-04-11T13:46:01.700Z,100641.59
2023-04-11T13:48:29.432Z,100624.63
2023-04-11T13:50:58.021Z,100626.25
2023-04-11T13:53:25.333Z,100619.59
2023-04-11T13:55:53.063Z,100609.41
2023-04-11T13:58:20.854Z,100628.59
2023-04-11T14:00:50.480Z,100633.25
2023-04-11T14:03:18.104Z,100626.00
2023-04-11T14:05:45.995Z,100622.00
2023-04-11T14:08:13.812Z,100618.09
2023-04-11T14:10:41.701Z,100618.81
2023-04-11T14:15:38.980Z,100612.44
2023-04-11T14:18:07.311Z,100611.66
2023-04-11T14:20:34.778Z,100602.19
2023-04-11T14:23:02.461Z,100613.31
2023-04-11T14:25:30.831Z,100609.91
2023-04-11T14:27:58.553Z,100624.28
2023-04-11T14:30:26.952Z,100609.38
2023-04-11T14:32:54.677Z,100592.13
2023-04-11T14:35:22.672Z,100584.97
2023-04-11T14:37:50.038Z,100585.34
2023-04-11T14:40:17.647Z,100580.19
2023-04-11T14:42:45.994Z,100573.91
2023-04-11T14:45:14.688Z,100567.41
2023-04-11T14:47:43.489Z,100562.88
2023-04-11T14:50:11.459Z,100571.13
2023-04-11T14:52:39.315Z,100562.25
2023-04-11T14:55:08.125Z,100562.59
2023-04-11T14:57:48.751Z,100558.00
2023-04-11T15:00:20.397Z,100559.66
2023-04-11T15:02:55.797Z,100555.25
2023-04-11T15:05:23.888Z,100544.16
2023-04-11T15:07:53.114Z,100550.84
2023-04-11T15:10:21.930Z,100547.06
2023-04-11T15:12:50.403Z,100544.34
2023-04-11T15:15:17.876Z,100547.41
2023-04-11T15:17:47.024Z,100537.88
2023-04-11T15:20:15.346Z,100536.81
2023-04-11T15:22:44.220Z,100538.63
2023-04-11T15:25:13.378Z,100548.38
2023-04-11T15:27:40.919Z,100538.25
2023-04-11T15:30:08.836Z,100532.22
2023-04-11T15:32:36.117Z,100528.25
2023-04-11T15:35:03.870Z,100539.66
2023-04-11T15:37:31.473Z,100522.03
2023-04-11T15:39:59.810Z,100526.97
2023-04-11T15:42:27.195Z,100523.31
2023-04-11T15:44:54.685Z,100524.94
2023-04-11T15:47:22.947Z,100526.63
2023-04-11T15:49:51.112Z,100521.97
2023-04-11T15:52:21.298Z,100521.34
2023-04-11T15:54:48.963Z,100513.78
2023-04-11T15:57:18.357Z,100509.34
2023-04-11T15:59:45.848Z,100513.97
2023-04-11T16:02:15.351Z,100508.03
2023-04-11T16:04:47.218Z,100517.88
2023-04-11T16:07:18.548Z,100513.38
2023-04-11T16:09:46.624Z,100518.59
2023-04-11T16:12:14.409Z,100515.69
2023-04-11T16:14:42.366Z,100515.53
2023-04-11T16:17:10.480Z,100514.34
2023-04-11T16:19:39.121Z,100525.94
2023-04-11T16:22:06.799Z,100525.94
2023-04-11T16:24:34.555Z,100523.03
2023-04-11T16:27:02.736Z,100514.72
2023-04-11T16:29:30.814Z,100514.75
2023-04-11T16:31:58.699Z,100509.81
2023-04-11T16:34:26.398Z,100507.94
2023-04-11T16:36:54.174Z,100510.63
2023-04-11T16:39:21.840Z,100511.31
2023-04-11T16:41:49.749Z,100514.69
2023-04-11T16:44:18.232Z,100510.28
2023-04-11T16:46:46.051Z,100502.44
2023-04-11T16:49:13.833Z,100495.75
2023-04-11T16:51:41.568Z,100508.84
2023-04-11T16:54:10.842Z,100508.81
2023-04-11T16:56:38.222Z,100511.06
2023-04-11T16:59:05.921Z,100500.66
2023-04-11T17:01:33.311Z,100493.63
2023-04-11T17:04:01.589Z,100498.38
2023-04-11T17:06:30.222Z,100502.53
2023-04-11T17:08:58.104Z,100502.09
2023-04-11T17:11:26.034Z,100499.31
2023-04-11T17:13:55.267Z,100507.25
2023-04-11T17:16:23.498Z,100504.53
2023-04-11T17:18:51.363Z,100493.47
2023-04-11T17:21:19.259Z,100490.44
2023-04-11T17:23:47.206Z,100482.66
2023-04-11T17:26:14.767Z,100489.06
2023-04-11T17:28:42.530Z,100485.59
2023-04-11T17:31:11.862Z,100485.44
2023-04-11T17:33:39.989Z,100492.91
2023-04-11T17:36:08.250Z,100493.59
2023-04-11T17:38:37.395Z,100490.41
2023-04-11T17:41:13.721Z,100490.56
2023-04-11T17:43:43.783Z,100491.75
2023-04-11T17:46:12.926Z,100492.44
2023-04-11T17:48:42.163Z,100502.13
2023-04-11T17:51:10.102Z,100503.44
2023-04-11T17:53:38.143Z,100502.09
2023-04-11T17:56:08.491Z,100493.47
2023-04-11T17:58:36.313Z,100498.63
2023-04-11T18:01:04.799Z,100507.44
2023-04-11T18:03:35.164Z,100507.59
2023-04-11T18:06:03.466Z,100514.72
2023-04-11T18:08:48.912Z,100507.53
2023-04-11T18:11:17.924Z,100507.00
2023-04-11T18:13:46.995Z,100512.50
2023-04-11T18:16:18.392Z,100510.66
2023-04-11T18:18:46.481Z,100515.78
2023-04-11T18:21:14.600Z,100524.38
2023-04-11T18:23:42.039Z,100525.50
2023-04-11T18:26:09.460Z,100534.91
2023-04-11T18:28:37.475Z,100530.47
2023-04-11T18:31:05.900Z,100535.22
2023-04-11T18:33:33.974Z,100532.06
2023-04-11T18:36:02.571Z,100536.78
2023-04-11T18:38:30.480Z,100540.31
2023-04-11T18:41:02.154Z,100543.50
2023-04-11T18:43:32.761Z,100544.41
2023-04-11T18:46:03.959Z,100554.56
2023-04-11T18:48:32.542Z,100565.72
2023-04-11T18:51:00.962Z,100557.91
2023-04-11T18:53:30.156Z,100561.41
2023-04-11T18:55:58.168Z,100567.00
2023-04-11T18:58:27.010Z,100569.75
2023-04-11T19:00:55.542Z,100574.13
2023-04-11T19:03:24.342Z,100569.28
2023-04-11T19:05:52.956Z,100569.38
2023-04-11T19:08:21.055Z,100568.25
2023-04-11T19:10:48.896Z,100572.84
2023-04-11T19:13:16.190Z,100584.75
2023-04-11T19:15:44.018Z,100589.25
2023-04-11T19:18:11.874Z,100600.00
2023-04-11T19:20:39.329Z,100593.31
2023-04-11T19:23:07.476Z,100592.81
2023-04-11T19:25:35.997Z,100588.16
2023-04-11T19:28:04.011Z,100588.94
2023-04-11T19:30:32.217Z,100591.81
2023-04-11T19:33:01.271Z,100601.19
2023-04-11T19:35:28.693Z,100610.69
2023-04-11T19:37:56.358Z,100621.16
2023-04-11T19:40:24.308Z,100617.66
2023-04-11T19:42:52.438Z,100619.59
2023-04-11T19:45:20.154Z,100618.78
2023-04-11T19:47:48.066Z,100618.19
2023-04-11T19:50:15.747Z,100616.97
2023-04-11T19:52:43.848Z,100616.53
2023-04-11T19:55:12.502Z,100609.59
2023-04-11T19:57:41.133Z,100605.69
2023-04-11T20:00:14.080Z,100618.50
2023-04-11T20:02:46.599Z,100604.84
2023-04-11T20:05:16.256Z,100605.41
2023-04-11T20:07:45.190Z,100610.00
2023-04-11T20:10:14.632Z,100604.00
2023-04-11T20:12:41.972Z,100614.56
2023-04-11T20:15:11.345Z,100618.88
2023-04-11T20:17:39.616Z,100625.00
2023-04-11T20:20:12.355Z,100623.16
2023-04-11T20:22:41.076Z,100616.06
2023-04-11T20:25:11.796Z,100610.56
2023-04-11T20:27:39.906Z,100612.81
2023-04-11T20:30:09.956Z,100615.81
2023-04-11T20:32:37.811Z,100618.06
2023-04-11T20:35:06.046Z,100619.97
2023-04-11T20:37:35.224Z,100615.81
2023-04-11T20:40:03.284Z,100625.84
2023-04-11T20:42:31.876Z,100631.97
2023-04-11T20:45:10.525Z,100641.97
2023-04-11T20:47:39.731Z,100641.41
2023-04-11T20:50:09.039Z,100640.38
2023-04-11T20:52:41.279Z,100645.44
2023-04-11T20:55:10.145Z,100649.44
2023-04-11T20:57:38.606Z,100643.50
2023-04-11T21:00:14.577Z,100641.78
2023-04-11T21:02:44.262Z,100650.22
2023-04-11T21:05:13.617Z,100657.59
2023-04-11T21:07:42.188Z,100651.16
2023-04-11T21:10:10.708Z,100649.75
2023-04-11T21:12:38.358Z,100662.66
2023-04-11T21:15:06.844Z,100656.81
2023-04-11T21:17:35.641Z,100660.91
2023-04-11T21:20:17.953Z,100663.09
2023-04-11T21:22:49.766Z,100668.56
2023-04-11T21:25:17.684Z,100662.72
2023-04-11T21:27:45.530Z,100664.50
2023-04-11T21:30:13.624Z,100670.16
2023-04-11T21:32:41.800Z,100671.16
2023-04-11T21:35:10.103Z,100674.53
2023-04-11T21:37:38.096Z,100671.34
2023-04-11T21:40:06.231Z,100674.81
2023-04-11T21:42:33.695Z,100668.56
2023-04-11T21:45:01.395Z,100666.19
2023-04-11T21:47:28.911Z,100667.47
2023-04-11T21:49:56.923Z,100657.03
2023-04-11T21:52:24.711Z,100661.16
2023-04-11T21:54:51.997Z,100652.69
2023-04-11T21:57:19.252Z,100656.91
2023-04-11T21:59:46.955Z,100664.19
2023-04-11T22:02:15.211Z,100669.66
2023-04-11T22:05:01.084Z,100663.72
2023-04-11T22:07:38.433Z,100662.59
2023-04-11T22:10:09.748Z,100653.47
2023-04-11T22:12:38.642Z,100653.47
2023-04-11T22:15:06.553Z,100648.59
2023-04-11T22:17:34.920Z,100646.69
2023-04-11T22:20:05.046Z,100643.97
2023-04-11T22:22:33.099Z,100640.31
2023-04-11T22:25:00.491Z,100637.31
2023-04-11T22:27:29.550Z,100643.81
2023-04-11T22:29:57.445Z,100637.91
2023-04-11T22:32:25.172Z,100634.97
2023-04-11T22:34:52.545Z,100626.44
2023-04-11T22:37:19.815Z,100622.84
2023-04-11T22:39:47.557Z,100626.19
2023-04-11T22:42:15.375Z,100635.13
2023-04-11T22:44:43.040Z,100642.22
2023-04-11T22:47:16.368Z,100638.25
2023-04-11T22:49:45.095Z,100639.78
2023-04-11T22:52:18.912Z,100635.88
2023-04-11T22:54:47.131Z,100636.06
2023-04-11T22:57:15.579Z,100640.41
2023-04-11T22:59:43.350Z,100629.75
2023-04-11T23:02:10.911Z,100630.22
2023-04-11T23:04:38.324Z,100635.75
2023-04-11T23:07:05.739Z,100636.00
2023-04-11T23:09:33.426Z,100637.91
2023-04-11T23:12:00.900Z,100636.72
2023-04-11T23:14:31.483Z,100630.59
2023-04-11T23:16:59.257Z,100632.88
2023-04-11T23:19:27.260Z,100649.03
2023-04-11T23:21:55.628Z,100638.41
2023-04-11T23:24:23.149Z,100637.81
2023-04-11T23:26:50.863Z,100649.88
2023-04-11T23:29:19.009Z,100640.63
2023-04-11T23:31:46.598Z,100652.47
2023-04-11T23:34:14.086Z,100645.31
2023-04-11T23:36:42.211Z,100641.25
2023-04-11T23:39:09.926Z,100636.75
2023-04-11T23:41:38.025Z,100634.38
2023-04-11T23:44:05.988Z,100633.69
2023-04-11T23:46:33.283Z,100635.38
2023-04-11T23:49:01.507Z,100618.94
2023-04-11T23:51:29.773Z,100619.91
2023-04-11T23:53:57.338Z,100620.44
2023-04-11T23:56:26.217Z,100615.00
2023-04-11T23:58:54.169Z,100613.25
